< < Back
Terminal Aerodrome Forecast


Current Version              Previous Versions:   1  2  3  4  5  6  7  8  9  

Terminal Aerodrome Forecast

185
FTUS44 KMRX 241720
TAFCHA
TAF
KCHA 241720Z 2418/2518 18005KT P6SM SCT030 BKN200
     FM250100 VRB02KT P6SM FEW050 BKN200
     FM250900 00000KT P6SM BKN050
     FM251600 22003KT P6SM SCT050 BKN120=

Latest METAR

582
SAUS80 KWBC 242300 CCA
MTRCHA
METAR KCHA 242253Z 18003KT 10SM SCT045 BKN250 32/20 A3015 RMK AO2 SLP201
MDT CU SE T03220200


USA.gov is the U.S. government's official web portal to all federal, state and local government web resources and services.